KAL270 RKSS-RKPC
Flight info
| Callsign | KAL270 |
|---|---|
| Flight time | 0h 50m |
| Altitude | 24000 |
| Route | BULTI2Q BULTI Y711 DOTOL DOTOL2M |
| Aircraft | A321/M-SDE3FGHIRWY/LB1 |
Departure
| Time | 2025-09-07 05:19 |
|---|---|
| Airport | Gimpo International Airport (RKSS) |
Arrival
| Time | 2025-09-07 06:09 |
|---|---|
| Airport | Jeju International Airport (RKPC) |
| Time | Latitude | Longitude | Altitude | Speed | Heading |
|---|---|---|---|---|---|
| 2025-09-07 05:00 | 37.55834 | 126.79831 | 67 ft | 0 kts | 225° |
| 2025-09-07 05:11 | 37.55825 | 126.79820 | 67 ft | 4 kts | 225° |
| 2025-09-07 05:12 | 37.55765 | 126.79774 | 62 ft | 6 kts | 167° |
| 2025-09-07 05:12 | 37.55725 | 126.79814 | 63 ft | 8 kts | 135° |
| 2025-09-07 05:12 | 37.55679 | 126.79873 | 66 ft | 8 kts | 135° |
| 2025-09-07 05:13 | 37.55579 | 126.80000 | 65 ft | 12 kts | 135° |
| 2025-09-07 05:13 | 37.55449 | 126.80163 | 61 ft | 14 kts | 135° |
| 2025-09-07 05:14 | 37.55296 | 126.80357 | 65 ft | 17 kts | 135° |
| 2025-09-07 05:14 | 37.55119 | 126.80578 | 57 ft | 19 kts | 135° |
| 2025-09-07 05:15 | 37.54934 | 126.80808 | 60 ft | 7 kts | 136° |
| 2025-09-07 05:15 | 37.54883 | 126.80824 | 60 ft | 9 kts | 196° |
| 2025-09-07 05:16 | 37.54797 | 126.80719 | 60 ft | 5 kts | 241° |
| 2025-09-07 05:16 | 37.54825 | 126.80651 | 59 ft | 0 kts | 314° |
| 2025-09-07 05:17 | 37.54839 | 126.80633 | 58 ft | 18 kts | 314° |
| 2025-09-07 05:17 | 37.55748 | 126.79493 | 67 ft | 155 kts | 315° |
| 2025-09-07 05:18 | 37.58274 | 126.76114 | 2099 ft | 178 kts | 311° |
| 2025-09-07 05:18 | 37.59118 | 126.74979 | 2836 ft | 177 kts | 312° |
| 2025-09-07 05:19 | 37.61930 | 126.71235 | 3972 ft | 228 kts | 310° |
| 2025-09-07 05:19 | 37.62704 | 126.69436 | 4238 ft | 250 kts | 279° |
| 2025-09-07 05:20 | 37.60001 | 126.63649 | 6201 ft | 275 kts | 224° |
| 2025-09-07 05:20 | 37.58570 | 126.62018 | 6907 ft | 278 kts | 224° |
| 2025-09-07 05:21 | 37.55305 | 126.59356 | 8342 ft | 288 kts | 198° |
| 2025-09-07 05:21 | 37.51265 | 126.58737 | 9758 ft | 295 kts | 189° |
| 2025-09-07 05:22 | 37.47029 | 126.58146 | 10361 ft | 328 kts | 190° |
| 2025-09-07 05:22 | 37.42238 | 126.57471 | 11003 ft | 355 kts | 188° |
| 2025-09-07 05:23 | 37.34731 | 126.58819 | 12828 ft | 372 kts | 171° |
| 2025-09-07 05:23 | 37.32189 | 126.59511 | 13505 ft | 375 kts | 171° |
| 2025-09-07 05:24 | 37.27108 | 126.61089 | 14659 ft | 382 kts | 169° |
| 2025-09-07 05:24 | 37.21920 | 126.62861 | 15837 ft | 388 kts | 169° |
| 2025-09-07 05:25 | 37.16671 | 126.64628 | 17002 ft | 391 kts | 170° |
| 2025-09-07 05:25 | 37.12266 | 126.66080 | 17947 ft | 395 kts | 171° |
| 2025-09-07 05:26 | 37.06913 | 126.67834 | 18936 ft | 398 kts | 171° |
| 2025-09-07 05:26 | 37.01512 | 126.69603 | 19887 ft | 403 kts | 172° |
| 2025-09-07 05:27 | 36.93317 | 126.72303 | 21230 ft | 410 kts | 172° |
| 2025-09-07 05:27 | 36.90545 | 126.73240 | 21649 ft | 415 kts | 169° |
| 2025-09-07 05:28 | 36.85085 | 126.75937 | 22455 ft | 424 kts | 165° |
| 2025-09-07 05:28 | 36.79575 | 126.78753 | 23232 ft | 429 kts | 165° |
| 2025-09-07 05:29 | 36.74041 | 126.81528 | 23796 ft | 429 kts | 169° |
| 2025-09-07 05:29 | 36.68268 | 126.82661 | 23873 ft | 414 kts | 185° |
| 2025-09-07 05:30 | 36.62487 | 126.82858 | 23875 ft | 415 kts | 184° |
| 2025-09-07 05:30 | 36.56729 | 126.83082 | 23877 ft | 416 kts | 184° |
| 2025-09-07 05:31 | 36.50934 | 126.83307 | 23881 ft | 415 kts | 184° |
| 2025-09-07 05:31 | 36.45129 | 126.83536 | 23879 ft | 416 kts | 184° |
| 2025-09-07 05:32 | 36.36495 | 126.83563 | 23868 ft | 412 kts | 190° |
| 2025-09-07 05:33 | 36.30771 | 126.82920 | 23864 ft | 412 kts | 190° |
| 2025-09-07 05:33 | 36.25077 | 126.82293 | 23864 ft | 413 kts | 190° |
| 2025-09-07 05:34 | 36.19332 | 126.81670 | 23856 ft | 413 kts | 189° |
| 2025-09-07 05:34 | 36.16462 | 126.81361 | 23853 ft | 414 kts | 189° |
| 2025-09-07 05:34 | 36.10705 | 126.80746 | 23848 ft | 415 kts | 189° |
| 2025-09-07 05:35 | 36.02035 | 126.79805 | 23841 ft | 417 kts | 189° |
| 2025-09-07 05:36 | 35.96262 | 126.79175 | 23843 ft | 418 kts | 189° |
| 2025-09-07 05:36 | 35.90444 | 126.78546 | 23839 ft | 419 kts | 189° |
| 2025-09-07 05:37 | 35.84654 | 126.77917 | 23847 ft | 421 kts | 189° |
| 2025-09-07 05:37 | 35.78808 | 126.77294 | 23850 ft | 421 kts | 189° |
| 2025-09-07 05:38 | 35.72972 | 126.76664 | 23859 ft | 421 kts | 189° |
| 2025-09-07 05:38 | 35.70048 | 126.76348 | 23858 ft | 421 kts | 189° |
| 2025-09-07 05:38 | 35.64195 | 126.75710 | 23864 ft | 421 kts | 189° |
| 2025-09-07 05:39 | 35.55452 | 126.74763 | 23878 ft | 422 kts | 189° |
| 2025-09-07 05:40 | 35.49583 | 126.74132 | 23885 ft | 422 kts | 189° |
| 2025-09-07 05:40 | 35.43717 | 126.73506 | 23890 ft | 423 kts | 189° |
| 2025-09-07 05:41 | 35.37853 | 126.72872 | 23895 ft | 422 kts | 189° |
| 2025-09-07 05:41 | 35.32030 | 126.72256 | 23891 ft | 422 kts | 189° |
| 2025-09-07 05:41 | 35.29106 | 126.71947 | 23890 ft | 422 kts | 189° |
| 2025-09-07 05:42 | 35.23250 | 126.71326 | 23888 ft | 421 kts | 189° |
| 2025-09-07 05:42 | 35.17397 | 126.70698 | 23884 ft | 421 kts | 189° |
| 2025-09-07 05:43 | 35.08613 | 126.69769 | 23876 ft | 422 kts | 188° |
| 2025-09-07 05:44 | 35.02791 | 126.69148 | 23871 ft | 421 kts | 188° |
| 2025-09-07 05:44 | 34.96925 | 126.68524 | 23867 ft | 422 kts | 188° |
| 2025-09-07 05:45 | 34.91105 | 126.67910 | 23864 ft | 422 kts | 188° |
| 2025-09-07 05:45 | 34.88182 | 126.67599 | 23868 ft | 422 kts | 188° |
| 2025-09-07 05:45 | 34.82315 | 126.66980 | 23871 ft | 422 kts | 188° |
| 2025-09-07 05:46 | 34.76453 | 126.66360 | 23866 ft | 422 kts | 188° |
| 2025-09-07 05:46 | 34.70662 | 126.65751 | 23177 ft | 413 kts | 188° |
| 2025-09-07 05:47 | 34.62192 | 126.64865 | 21752 ft | 400 kts | 188° |
| 2025-09-07 05:48 | 34.56704 | 126.64292 | 20838 ft | 394 kts | 188° |
| 2025-09-07 05:48 | 34.51268 | 126.63726 | 19914 ft | 389 kts | 188° |
| 2025-09-07 05:48 | 34.48565 | 126.63446 | 19447 ft | 387 kts | 188° |
| 2025-09-07 05:49 | 34.43240 | 126.62887 | 18489 ft | 384 kts | 188° |
| 2025-09-07 05:49 | 34.37930 | 126.62328 | 17403 ft | 380 kts | 188° |
| 2025-09-07 05:50 | 34.32693 | 126.61776 | 16371 ft | 374 kts | 188° |
| 2025-09-07 05:50 | 34.27540 | 126.61238 | 15339 ft | 368 kts | 188° |
| 2025-09-07 05:51 | 34.19921 | 126.60438 | 13769 ft | 363 kts | 188° |
| 2025-09-07 05:52 | 34.14925 | 126.59924 | 12672 ft | 358 kts | 188° |
| 2025-09-07 05:52 | 34.10018 | 126.59421 | 11770 ft | 347 kts | 188° |
| 2025-09-07 05:52 | 34.07656 | 126.59178 | 11449 ft | 339 kts | 188° |
| 2025-09-07 05:53 | 34.03140 | 126.58726 | 11202 ft | 313 kts | 186° |
| 2025-09-07 05:53 | 33.99283 | 126.60612 | 10882 ft | 312 kts | 132° |
| 2025-09-07 05:54 | 33.98053 | 126.65617 | 10185 ft | 317 kts | 97° |
| 2025-09-07 05:55 | 33.97368 | 126.73490 | 9119 ft | 313 kts | 97° |
| 2025-09-07 05:55 | 33.97134 | 126.76094 | 8777 ft | 312 kts | 98° |
| 2025-09-07 05:55 | 33.96645 | 126.81259 | 8088 ft | 308 kts | 98° |
| 2025-09-07 05:56 | 33.96150 | 126.86421 | 7371 ft | 306 kts | 98° |
| 2025-09-07 05:56 | 33.95612 | 126.91336 | 7122 ft | 284 kts | 108° |
| 2025-09-07 05:57 | 33.93902 | 126.95408 | 6795 ft | 266 kts | 124° |
| 2025-09-07 05:58 | 33.89674 | 126.98306 | 6312 ft | 238 kts | 195° |
| 2025-09-07 05:58 | 33.88178 | 126.97550 | 6187 ft | 232 kts | 219° |
| 2025-09-07 05:58 | 33.86055 | 126.95569 | 5981 ft | 231 kts | 220° |
| 2025-09-07 05:59 | 33.82236 | 126.92032 | 5627 ft | 230 kts | 220° |
| 2025-09-07 06:00 | 33.79710 | 126.89702 | 5391 ft | 229 kts | 220° |
| 2025-09-07 06:00 | 33.77183 | 126.87374 | 5157 ft | 229 kts | 220° |
| 2025-09-07 06:01 | 33.74657 | 126.85043 | 4918 ft | 226 kts | 219° |
| 2025-09-07 06:01 | 33.72208 | 126.82776 | 4694 ft | 220 kts | 220° |
| 2025-09-07 06:01 | 33.70995 | 126.81650 | 4572 ft | 220 kts | 220° |
| 2025-09-07 06:02 | 33.67399 | 126.78334 | 4237 ft | 218 kts | 219° |
| 2025-09-07 06:02 | 33.66194 | 126.77225 | 4127 ft | 218 kts | 219° |
| 2025-09-07 06:03 | 33.63380 | 126.72998 | 3410 ft | 215 kts | 239° |
| 2025-09-07 06:04 | 33.61863 | 126.70024 | 3001 ft | 202 kts | 239° |
| 2025-09-07 06:04 | 33.60413 | 126.67186 | 3007 ft | 198 kts | 239° |
| 2025-09-07 06:04 | 33.59692 | 126.65778 | 2947 ft | 198 kts | 239° |
| 2025-09-07 06:05 | 33.58302 | 126.63062 | 2535 ft | 175 kts | 239° |
| 2025-09-07 06:06 | 33.56603 | 126.59742 | 1942 ft | 145 kts | 238° |
| 2025-09-07 06:06 | 33.56076 | 126.58713 | 1758 ft | 144 kts | 241° |
| 2025-09-07 06:06 | 33.55038 | 126.56687 | 1400 ft | 142 kts | 242° |
| 2025-09-07 06:07 | 33.52990 | 126.52695 | 676 ft | 139 kts | 239° |
| 2025-09-07 06:08 | 33.52485 | 126.51711 | 483 ft | 138 kts | 238° |
| 2025-09-07 06:08 | 33.51467 | 126.49735 | 147 ft | 140 kts | 240° |
| 2025-09-07 06:09 | 33.50748 | 126.48295 | 92 ft | 38 kts | 238° |
| 2025-09-07 06:09 | 33.50493 | 126.47959 | 94 ft | 18 kts | 208° |
| 2025-09-07 06:09 | 33.50439 | 126.47926 | 94 ft | 6 kts | 206° |
| 2025-09-07 06:10 | 33.50389 | 126.47973 | 95 ft | 8 kts | 71° |
| 2025-09-07 06:10 | 33.50454 | 126.48127 | 93 ft | 12 kts | 60° |
| 2025-09-07 06:11 | 33.50603 | 126.48415 | 92 ft | 15 kts | 58° |
| 2025-09-07 06:12 | 33.50593 | 126.48533 | 92 ft | 9 kts | 149° |
| 2025-09-07 06:12 | 33.50539 | 126.48633 | 91 ft | 8 kts | 72° |
| 2025-09-07 06:13 | 33.50602 | 126.48642 | 93 ft | 4 kts | 328° |
| 2025-09-07 06:13 | 33.50615 | 126.48632 | 90 ft | 0 kts | 329° |